sensor_id;sensor_type;location;lat;lon;timestamp;pressure;altitude;pressure_sealevel;temperature;humidity
62333;BME280;48624;49.812;8.562;2023-02-28T00:00:13;101694.50;;;-1.63;67.90
62333;BME280;48624;49.812;8.562;2023-02-28T00:02:39;101695.34;;;-1.69;67.90
62333;BME280;48624;49.812;8.562;2023-02-28T00:05:06;101688.34;;;-1.88;69.66
62333;BME280;48624;49.812;8.562;2023-02-28T00:07:34;101694.50;;;-1.58;66.99
62333;BME280;48624;49.812;8.562;2023-02-28T00:09:59;101694.44;;;-1.88;69.55
62333;BME280;48624;49.812;8.562;2023-02-28T00:12:25;101687.56;;;-1.67;68.44
62333;BME280;48624;49.812;8.562;2023-02-28T00:14:50;101684.00;;;-1.92;69.82
62333;BME280;48624;49.812;8.562;2023-02-28T00:17:16;101682.34;;;-1.79;69.17
62333;BME280;48624;49.812;8.562;2023-02-28T00:19:43;101683.97;;;-1.96;70.10
62333;BME280;48624;49.812;8.562;2023-02-28T00:22:08;101687.50;;;-1.78;69.37
62333;BME280;48624;49.812;8.562;2023-02-28T00:24:35;101696.13;;;-1.96;70.44
62333;BME280;48624;49.812;8.562;2023-02-28T00:27:00;101683.97;;;-2.06;71.47
62333;BME280;48624;49.812;8.562;2023-02-28T00:29:26;101693.56;;;-1.76;69.34
62333;BME280;48624;49.812;8.562;2023-02-28T00:31:51;101690.91;;;-1.96;71.00
62333;BME280;48624;49.812;8.562;2023-02-28T00:34:17;101700.50;;;-1.84;69.82
62333;BME280;48624;49.812;8.562;2023-02-28T00:36:42;101691.78;;;-1.99;71.03
62333;BME280;48624;49.812;8.562;2023-02-28T00:39:10;101694.41;;;-1.86;70.56
62333;BME280;48624;49.812;8.562;2023-02-28T00:41:36;101694.44;;;-1.77;70.03
62333;BME280;48624;49.812;8.562;2023-02-28T00:44:01;101691.84;;;-1.83;70.49
62333;BME280;48624;49.812;8.562;2023-02-28T00:46:26;101691.78;;;-1.94;71.00
62333;BME280;48624;49.812;8.562;2023-02-28T00:48:52;101691.78;;;-1.94;70.99
62333;BME280;48624;49.812;8.562;2023-02-28T00:51:17;101696.13;;;-1.91;71.33
62333;BME280;48624;49.812;8.562;2023-02-28T00:53:42;101693.56;;;-1.79;70.43
62333;BME280;48624;49.812;8.562;2023-02-28T00:56:07;101695.31;;;-1.81;70.19
62333;BME280;48624;49.812;8.562;2023-02-28T00:58:33;101691.88;;;-1.74;69.56
62333;BME280;48624;49.812;8.562;2023-02-28T01:00:58;101693.56;;;-1.84;69.69
62333;BME280;48624;49.812;8.562;2023-02-28T01:03:23;101697.88;;;-1.89;70.36
62333;BME280;48624;49.812;8.562;2023-02-28T01:05:49;101697.00;;;-1.91;69.90
62333;BME280;48624;49.812;8.562;2023-02-28T01:08:14;101694.38;;;-1.91;69.68
62333;BME280;48624;49.812;8.562;2023-02-28T01:10:40;101692.72;;;-1.81;69.44
62333;BME280;48624;49.812;8.562;2023-02-28T01:13:06;101689.19;;;-1.97;70.83
62333;BME280;48624;49.812;8.562;2023-02-28T01:15:31;101690.09;;;-1.83;70.34
62333;BME280;48624;49.812;8.562;2023-02-28T01:17:57;101688.34;;;-1.85;70.29
62333;BME280;48624;49.812;8.562;2023-02-28T01:20:22;101684.78;;;-2.14;72.48
62333;BME280;48624;49.812;8.562;2023-02-28T01:22:48;101681.31;;;-2.10;72.60
62333;BME280;48624;49.812;8.562;2023-02-28T01:25:13;101686.56;;;-1.99;71.70
62333;BME280;48624;49.812;8.562;2023-02-28T01:27:38;101679.59;;;-2.17;72.92
62333;BME280;48624;49.812;8.562;2023-02-28T01:30:06;101680.47;;;-2.10;72.75
62333;BME280;48624;49.812;8.562;2023-02-28T01:32:31;101678.81;;;-1.86;71.46
62333;BME280;48624;49.812;8.562;2023-02-28T01:34:56;101672.72;;;-2.02;72.93
62333;BME280;48624;49.812;8.562;2023-02-28T01:37:22;101671.84;;;-2.01;72.47
62333;BME280;48624;49.812;8.562;2023-02-28T01:39:47;101676.28;;;-1.75;71.21
62333;BME280;48624;49.812;8.562;2023-02-28T01:42:12;101665.88;;;-1.83;71.48
62333;BME280;48624;49.812;8.562;2023-02-28T01:47:34;101672.84;;;-1.68;71.08
62333;BME280;48624;49.812;8.562;2023-02-28T01:50:04;101673.69;;;-1.66;70.83
62333;BME280;48624;49.812;8.562;2023-02-28T01:52:31;101669.22;;;-2.12;73.04
62333;BME280;48624;49.812;8.562;2023-02-28T01:54:59;101667.50;;;-2.07;73.06
62333;BME280;48624;49.812;8.562;2023-02-28T01:57:30;101659.81;;;-1.82;71.06
62333;BME280;48624;49.812;8.562;2023-02-28T02:00:05;101663.16;;;-2.10;73.18
62333;BME280;48624;49.812;8.562;2023-02-28T02:02:33;101659.69;;;-2.15;73.70
62333;BME280;48624;49.812;8.562;2023-02-28T02:05:04;101662.28;;;-2.15;73.58
62333;BME280;48624;49.812;8.562;2023-02-28T02:07:36;101653.59;;;-2.20;74.12
62333;BME280;48624;49.812;8.562;2023-02-28T02:10:31;101658.81;;;-2.11;73.09
62333;BME280;48624;49.812;8.562;2023-02-28T02:13:23;101662.31;;;-2.02;72.81
62333;BME280;48624;49.812;8.562;2023-02-28T02:19:28;101652.84;;;-1.92;72.13
62333;BME280;48624;49.812;8.562;2023-02-28T02:22:27;101645.00;;;-2.08;73.30
62333;BME280;48624;49.812;8.562;2023-02-28T02:25:12;101647.53;;;-2.25;74.31
62333;BME280;48624;49.812;8.562;2023-02-28T02:28:12;101645.78;;;-2.23;74.19
62333;BME280;48624;49.812;8.562;2023-02-28T02:36:15;101652.72;;;-2.17;73.90
62333;BME280;48624;49.812;8.562;2023-02-28T02:39:28;101646.66;;;-2.21;73.84
62333;BME280;48624;49.812;8.562;2023-02-28T02:41:54;101644.91;;;-2.24;74.07
62333;BME280;48624;49.812;8.562;2023-02-28T02:44:24;101644.09;;;-2.18;72.99
62333;BME280;48624;49.812;8.562;2023-02-28T02:46:55;101648.34;;;-2.32;74.18
62333;BME280;48624;49.812;8.562;2023-02-28T02:49:31;101643.09;;;-2.39;74.15
62333;BME280;48624;49.812;8.562;2023-02-28T02:52:00;101652.59;;;-2.42;74.81
62333;BME280;48624;49.812;8.562;2023-02-28T02:54:30;101650.91;;;-2.40;73.50
62333;BME280;48624;49.812;8.562;2023-02-28T02:56:59;101658.56;;;-2.63;75.66
62333;BME280;48624;49.812;8.562;2023-02-28T02:59:28;101650.81;;;-2.59;74.54
62333;BME280;48624;49.812;8.562;2023-02-28T03:01:59;101656.78;;;-2.68;76.15
62333;BME280;48624;49.812;8.562;2023-02-28T03:04:28;101667.16;;;-2.71;76.49
62333;BME280;48624;49.812;8.562;2023-02-28T03:06:55;101652.47;;;-2.70;75.62
62333;BME280;48624;49.812;8.562;2023-02-28T03:09:25;101655.03;;;-2.69;75.59
62333;BME280;48624;49.812;8.562;2023-02-28T03:11:52;101654.22;;;-2.65;75.08
62333;BME280;48624;49.812;8.562;2023-02-28T03:14:42;101655.03;;;-2.73;76.82
62333;BME280;48624;49.812;8.562;2023-02-28T03:19:59;101649.97;;;-2.50;73.49
62333;BME280;48624;49.812;8.562;2023-02-28T03:25:29;101647.38;;;-2.47;75.16
62333;BME280;48624;49.812;8.562;2023-02-28T03:30:42;101648.25;;;-2.49;75.00
62333;BME280;48624;49.812;8.562;2023-02-28T03:33:16;101651.63;;;-2.65;77.86
62333;BME280;48624;49.812;8.562;2023-02-28T03:35:49;101648.09;;;-2.71;78.67
62333;BME280;48624;49.812;8.562;2023-02-28T03:38:21;101641.28;;;-2.57;77.33
62333;BME280;48624;49.812;8.562;2023-02-28T03:40:51;101643.88;;;-2.57;77.24
62333;BME280;48624;49.812;8.562;2023-02-28T03:43:28;101647.25;;;-2.72;78.48
62333;BME280;48624;49.812;8.562;2023-02-28T03:45:55;101647.25;;;-2.69;78.47
62333;BME280;48624;49.812;8.562;2023-02-28T03:48:26;101653.31;;;-2.73;78.62
62333;BME280;48624;49.812;8.562;2023-02-28T03:50:57;101655.09;;;-2.62;77.96
62333;BME280;48624;49.812;8.562;2023-02-28T03:53:31;101655.03;;;-2.72;78.66
62333;BME280;48624;49.812;8.562;2023-02-28T03:56:07;101655.81;;;-2.81;78.98
62333;BME280;48624;49.812;8.562;2023-02-28T04:01:45;101655.84;;;-2.82;78.30
62333;BME280;48624;49.812;8.562;2023-02-28T04:04:11;101668.66;;;-2.98;80.05
62333;BME280;48624;49.812;8.562;2023-02-28T04:06:38;101664.59;;;-2.65;76.78
62333;BME280;48624;49.812;8.562;2023-02-28T04:09:06;101655.84;;;-2.82;77.96
62333;BME280;48624;49.812;8.562;2023-02-28T04:11:42;101666.16;;;-2.88;79.47
62333;BME280;48624;49.812;8.562;2023-02-28T04:14:09;101663.53;;;-2.93;80.28
62333;BME280;48624;49.812;8.562;2023-02-28T04:16:38;101668.66;;;-2.98;80.71
62333;BME280;48624;49.812;8.562;2023-02-28T04:19:05;101654.09;;;-2.83;79.55
62333;BME280;48624;49.812;8.562;2023-02-28T04:21:37;101661.81;;;-2.89;80.29
62333;BME280;48624;49.812;8.562;2023-02-28T04:24:04;101658.44;;;-2.79;79.24
62333;BME280;48624;49.812;8.562;2023-02-28T04:26:34;101657.69;;;-2.66;78.22
62333;BME280;48624;49.812;8.562;2023-02-28T04:29:00;101661.84;;;-2.85;79.77
62333;BME280;48624;49.812;8.562;2023-02-28T04:31:27;101664.34;;;-2.96;80.41
62333;BME280;48624;49.812;8.562;2023-02-28T04:33:53;101648.00;;;-2.85;79.70
62333;BME280;48624;49.812;8.562;2023-02-28T04:36:18;101648.84;;;-2.93;80.62
62333;BME280;48624;49.812;8.562;2023-02-28T04:38:44;101658.38;;;-2.88;80.47
62333;BME280;48624;49.812;8.562;2023-02-28T04:41:10;101654.94;;;-2.86;80.49
62333;BME280;48624;49.812;8.562;2023-02-28T04:43:35;101652.34;;;-2.83;80.34
62333;BME280;48624;49.812;8.562;2023-02-28T04:46:03;101659.25;;;-2.86;81.22
62333;BME280;48624;49.812;8.562;2023-02-28T04:48:32;101654.19;;;-2.69;79.76
62333;BME280;48624;49.812;8.562;2023-02-28T04:51:09;101652.38;;;-2.81;80.53
62333;BME280;48624;49.812;8.562;2023-02-28T04:53:39;101653.94;;;-3.00;81.71
62333;BME280;48624;49.812;8.562;2023-02-28T04:56:05;101657.59;;;-2.73;80.11
62333;BME280;48624;49.812;8.562;2023-02-28T04:58:32;101657.69;;;-2.61;79.13
62333;BME280;48624;49.812;8.562;2023-02-28T05:01:50;101660.16;;;-2.84;79.90
62333;BME280;48624;49.812;8.562;2023-02-28T05:03:52;101662.72;;;-2.89;80.74
62333;BME280;48624;49.812;8.562;2023-02-28T05:06:18;101659.31;;;-2.79;80.05
62333;BME280;48624;49.812;8.562;2023-02-28T05:08:44;101667.09;;;-2.79;80.15
62333;BME280;48624;49.812;8.562;2023-02-28T05:11:18;101667.09;;;-2.77;80.31
62333;BME280;48624;49.812;8.562;2023-02-28T05:13:45;101665.38;;;-2.80;80.34
62333;BME280;48624;49.812;8.562;2023-02-28T05:16:11;101658.41;;;-2.87;81.34
62333;BME280;48624;49.812;8.562;2023-02-28T05:18:36;101665.50;;;-2.55;79.12
62333;BME280;48624;49.812;8.562;2023-02-28T05:21:02;101672.22;;;-2.85;80.57
62333;BME280;48624;49.812;8.562;2023-02-28T05:23:28;101662.81;;;-2.72;79.63
62333;BME280;48624;49.812;8.562;2023-02-28T05:25:53;101664.56;;;-2.71;79.75
62333;BME280;48624;49.812;8.562;2023-02-28T05:28:19;101666.19;;;-2.84;80.63
62333;BME280;48624;49.812;8.562;2023-02-28T05:30:45;101666.16;;;-2.88;80.91
62333;BME280;48624;49.812;8.562;2023-02-28T05:33:11;101664.41;;;-2.93;81.16
62333;BME280;48624;49.812;8.562;2023-02-28T05:35:42;101662.91;;;-2.56;79.00
62333;BME280;48624;49.812;8.562;2023-02-28T05:38:09;101657.69;;;-2.66;79.43
62333;BME280;48624;49.812;8.562;2023-02-28T05:40:35;101674.16;;;-2.56;79.41
62333;BME280;48624;49.812;8.562;2023-02-28T05:43:00;101669.88;;;-2.52;78.92
62333;BME280;48624;49.812;8.562;2023-02-28T05:45:26;101671.50;;;-2.62;78.92
62333;BME280;48624;49.812;8.562;2023-02-28T05:47:54;101681.00;;;-2.69;79.48
62333;BME280;48624;49.812;8.562;2023-02-28T05:50:21;101676.59;;;-2.76;79.70
62333;BME280;48624;49.812;8.562;2023-02-28T05:52:52;101683.63;;;-2.62;79.17
62333;BME280;48624;49.812;8.562;2023-02-28T05:55:18;101684.59;;;-2.48;78.39
62333;BME280;48624;49.812;8.562;2023-02-28T05:57:43;101679.34;;;-2.59;78.99
62333;BME280;48624;49.812;8.562;2023-02-28T06:00:10;101676.00;;;-2.36;77.91
62333;BME280;48624;49.812;8.562;2023-02-28T06:02:36;101685.38;;;-2.58;79.11
62333;BME280;48624;49.812;8.562;2023-02-28T06:05:01;101679.34;;;-2.56;79.67
62333;BME280;48624;49.812;8.562;2023-02-28T06:07:26;101687.09;;;-2.63;79.59
62333;BME280;48624;49.812;8.562;2023-02-28T06:09:52;101684.56;;;-2.53;78.55
62333;BME280;48624;49.812;8.562;2023-02-28T06:12:17;101694.88;;;-2.60;78.77
62333;BME280;48624;49.812;8.562;2023-02-28T06:14:42;101688.06;;;-2.46;78.28
62333;BME280;48624;49.812;8.562;2023-02-28T06:17:09;101687.09;;;-2.63;79.42
62333;BME280;48624;49.812;8.562;2023-02-28T06:19:37;101689.72;;;-2.56;78.82
62333;BME280;48624;49.812;8.562;2023-02-28T06:22:04;101695.81;;;-2.55;78.49
62333;BME280;48624;49.812;8.562;2023-02-28T06:24:29;101690.59;;;-2.57;78.71
62333;BME280;48624;49.812;8.562;2023-02-28T06:26:57;101697.56;;;-2.48;78.19
62333;BME280;48624;49.812;8.562;2023-02-28T06:29:24;101704.53;;;-2.38;78.05
62333;BME280;48624;49.812;8.562;2023-02-28T06:31:49;101705.41;;;-2.40;78.37
62333;BME280;48624;49.812;8.562;2023-02-28T06:34:15;101702.78;;;-2.43;78.26
62333;BME280;48624;49.812;8.562;2023-02-28T06:36:43;101708.94;;;-2.32;77.64
62333;BME280;48624;49.812;8.562;2023-02-28T06:39:09;101712.38;;;-2.34;77.74
62333;BME280;48624;49.812;8.562;2023-02-28T06:41:35;101706.22;;;-2.51;78.92
62333;BME280;48624;49.812;8.562;2023-02-28T06:44:04;101714.94;;;-2.33;77.12
62333;BME280;48624;49.812;8.562;2023-02-28T06:46:31;101702.09;;;-2.10;76.67
62333;BME280;48624;49.812;8.562;2023-02-28T06:48:56;101712.38;;;-2.34;77.48
62333;BME280;48624;49.812;8.562;2023-02-28T06:51:21;101713.28;;;-2.25;77.37
62333;BME280;48624;49.812;8.562;2023-02-28T06:53:48;101714.09;;;-2.30;77.13
62333;BME280;48624;49.812;8.562;2023-02-28T06:56:15;101715.91;;;-2.20;77.23
62333;BME280;48624;49.812;8.562;2023-02-28T06:58:41;101714.28;;;-2.04;76.06
62333;BME280;48624;49.812;8.562;2023-02-28T07:01:08;101708.25;;;-1.92;75.85
62333;BME280;48624;49.812;8.562;2023-02-28T07:03:36;101721.97;;;-2.16;76.46
62333;BME280;48624;49.812;8.562;2023-02-28T07:06:02;101722.81;;;-2.25;77.04
62333;BME280;48624;49.812;8.562;2023-02-28T07:08:29;101710.00;;;-1.88;75.99
62333;BME280;48624;49.812;8.562;2023-02-28T07:10:55;101722.97;;;-1.97;75.52
62333;BME280;48624;49.812;8.562;2023-02-28T07:13:23;101721.19;;;-2.03;75.72
62333;BME280;48624;49.812;8.562;2023-02-28T07:15:58;101722.03;;;-2.05;75.72
62333;BME280;48624;49.812;8.562;2023-02-28T07:18:24;101721.38;;;-1.55;74.59
62333;BME280;48624;49.812;8.562;2023-02-28T07:20:49;101717.88;;;-1.66;75.36
62333;BME280;48624;49.812;8.562;2023-02-28T07:23:15;101726.63;;;-1.39;73.73
62333;BME280;48624;49.812;8.562;2023-02-28T07:25:41;101721.38;;;-1.53;73.99
62333;BME280;48624;49.812;8.562;2023-02-28T07:28:06;101728.31;;;-1.49;73.46
62333;BME280;48624;49.812;8.562;2023-02-28T07:30:31;101727.47;;;-1.42;73.34
62333;BME280;48624;49.812;8.562;2023-02-28T07:32:57;101732.69;;;-1.40;72.81
62333;BME280;48624;49.812;8.562;2023-02-28T07:38:46;101728.41;;;-1.27;72.33
62333;BME280;48624;49.812;8.562;2023-02-28T07:41:14;101727.50;;;-1.31;72.60
62333;BME280;48624;49.812;8.562;2023-02-28T07:43:40;101726.66;;;-1.19;71.94
62333;BME280;48624;49.812;8.562;2023-02-28T07:46:09;101724.94;;;-1.14;71.41
62333;BME280;48624;49.812;8.562;2023-02-28T07:48:36;101736.25;;;-0.54;69.27
62333;BME280;48624;49.812;8.562;2023-02-28T07:51:02;101728.38;;;-0.28;69.48
62333;BME280;48624;49.812;8.562;2023-02-28T07:53:28;101727.56;;;-0.62;69.51
62333;BME280;48624;49.812;8.562;2023-02-28T07:55:57;101737.06;;;-0.39;70.13
62333;BME280;48624;49.812;8.562;2023-02-28T07:58:23;101737.91;;;-0.26;68.31
62333;BME280;48624;49.812;8.562;2023-02-28T08:00:49;101731.00;;;-0.35;66.56
62333;BME280;48624;49.812;8.562;2023-02-28T08:03:15;101729.16;;;0.03;66.78
62333;BME280;48624;49.812;8.562;2023-02-28T08:05:41;101745.63;;;0.17;67.24
62333;BME280;48624;49.812;8.562;2023-02-28T08:08:07;101731.75;;;0.13;65.45
62333;BME280;48624;49.812;8.562;2023-02-28T08:10:34;101731.44;;;0.74;64.46
62333;BME280;48624;49.812;8.562;2023-02-28T08:12:59;101733.28;;;0.57;62.36
62333;BME280;48624;49.812;8.562;2023-02-28T08:15:25;101723.94;;;0.10;63.39
62333;BME280;48624;49.812;8.562;2023-02-28T08:17:50;101729.09;;;0.23;62.40
62333;BME280;48624;49.812;8.562;2023-02-28T08:20:15;101732.44;;;0.53;62.02
62333;BME280;48624;49.812;8.562;2023-02-28T08:22:41;101735.81;;;0.71;61.88
62333;BME280;48624;49.812;8.562;2023-02-28T08:25:07;101726.19;;;0.77;60.59
62333;BME280;48624;49.812;8.562;2023-02-28T08:27:34;101732.78;;;1.31;59.84
62333;BME280;48624;49.812;8.562;2023-02-28T08:30:00;101723.91;;;1.49;58.55
62333;BME280;48624;49.812;8.562;2023-02-28T08:32:26;101729.78;;;1.70;58.07
62333;BME280;48624;49.812;8.562;2023-02-28T08:34:51;101720.31;;;1.60;58.67
62333;BME280;48624;49.812;8.562;2023-02-28T08:37:17;101726.63;;;1.35;58.60
62333;BME280;48624;49.812;8.562;2023-02-28T08:39:42;101726.47;;;1.54;57.93
62333;BME280;48624;49.812;8.562;2023-02-28T08:42:08;101727.06;;;1.79;55.49
62333;BME280;48624;49.812;8.562;2023-02-28T08:44:33;101728.13;;;1.63;56.65
62333;BME280;48624;49.812;8.562;2023-02-28T08:46:58;101721.41;;;1.35;57.21
62333;BME280;48624;49.812;8.562;2023-02-28T08:49:23;101721.78;;;1.87;55.92
62333;BME280;48624;49.812;8.562;2023-02-28T08:51:49;101728.78;;;1.82;55.80
62333;BME280;48624;49.812;8.562;2023-02-28T08:54:14;101708.66;;;1.92;55.15
62333;BME280;48624;49.812;8.562;2023-02-28T08:56:44;101714.53;;;2.11;53.98
62333;BME280;48624;49.812;8.562;2023-02-28T08:59:10;101710.41;;;2.60;53.53
62333;BME280;48624;49.812;8.562;2023-02-28T09:01:35;101713.50;;;2.25;53.75
62333;BME280;48624;49.812;8.562;2023-02-28T09:04:02;101722.19;;;2.27;54.39
62333;BME280;48624;49.812;8.562;2023-02-28T09:06:28;101718.81;;;2.17;53.34
62333;BME280;48624;49.812;8.562;2023-02-28T09:08:56;101707.00;;;1.86;54.50
62333;BME280;48624;49.812;8.562;2023-02-28T09:11:23;101717.75;;;2.33;54.72
62333;BME280;48624;49.812;8.562;2023-02-28T09:13:49;101711.94;;;2.75;52.85
62333;BME280;48624;49.812;8.562;2023-02-28T09:16:15;101717.56;;;2.46;53.44
62333;BME280;48624;49.812;8.562;2023-02-28T09:18:41;101708.47;;;2.09;54.11
62333;BME280;48624;49.812;8.562;2023-02-28T09:21:09;101703.16;;;2.15;54.07
62333;BME280;48624;49.812;8.562;2023-02-28T09:23:35;101697.94;;;2.14;54.07
62333;BME280;48624;49.812;8.562;2023-02-28T09:26:03;101705.69;;;2.84;52.82
62333;BME280;48624;49.812;8.562;2023-02-28T09:28:28;101701.25;;;2.28;53.44
62333;BME280;48624;49.812;8.562;2023-02-28T09:30:54;101703.84;;;2.30;53.20
62333;BME280;48624;49.812;8.562;2023-02-28T09:33:20;101703.50;;;2.55;51.77
62333;BME280;48624;49.812;8.562;2023-02-28T09:35:47;101702.81;;;2.43;52.51
62333;BME280;48624;49.812;8.562;2023-02-28T09:38:12;101700.03;;;2.54;51.88
62333;BME280;48624;49.812;8.562;2023-02-28T09:40:50;101694.31;;;2.87;50.60
62333;BME280;48624;49.812;8.562;2023-02-28T09:43:18;101703.19;;;2.76;51.75
62333;BME280;48624;49.812;8.562;2023-02-28T09:45:59;101700.75;;;3.21;50.26
62333;BME280;48624;49.812;8.562;2023-02-28T09:48:31;101700.63;;;3.77;48.99
62333;BME280;48624;49.812;8.562;2023-02-28T09:51:03;101696.59;;;3.09;50.83
62333;BME280;48624;49.812;8.562;2023-02-28T09:53:35;101708.41;;;3.33;50.16
62333;BME280;48624;49.812;8.562;2023-02-28T09:56:13;101700.00;;;3.63;47.94
62333;BME280;48624;49.812;8.562;2023-02-28T09:58:46;101704.91;;;3.34;48.48
62333;BME280;48624;49.812;8.562;2023-02-28T10:01:23;101688.94;;;3.48;48.47
62333;BME280;48624;49.812;8.562;2023-02-28T10:04:09;101704.25;;;3.71;49.24
62333;BME280;48624;49.812;8.562;2023-02-28T10:06:46;101694.41;;;3.83;48.19
62333;BME280;48624;49.812;8.562;2023-02-28T10:09:32;101695.75;;;3.57;47.57
62333;BME280;48624;49.812;8.562;2023-02-28T10:12:04;101691.50;;;3.98;47.67
62333;BME280;48624;49.812;8.562;2023-02-28T10:14:33;101700.91;;;3.63;47.58
62333;BME280;48624;49.812;8.562;2023-02-28T10:17:14;101692.31;;;4.00;46.63
62333;BME280;48624;49.812;8.562;2023-02-28T10:22:36;101693.56;;;4.64;44.95
62333;BME280;48624;49.812;8.562;2023-02-28T10:25:16;101695.78;;;4.43;45.20
62333;BME280;48624;49.812;8.562;2023-02-28T10:27:42;101701.13;;;4.39;45.07
62333;BME280;48624;49.812;8.562;2023-02-28T10:30:10;101695.88;;;4.39;43.95
62333;BME280;48624;49.812;8.562;2023-02-28T10:32:37;101690.53;;;4.43;43.97
62333;BME280;48624;49.812;8.562;2023-02-28T10:37:48;101681.66;;;4.49;45.06
62333;BME280;48624;49.812;8.562;2023-02-28T10:42:57;101697.94;;;4.64;43.83
62333;BME280;48624;49.812;8.562;2023-02-28T10:45:23;101677.88;;;5.34;42.33
62333;BME280;48624;49.812;8.562;2023-02-28T10:50:29;101679.53;;;5.38;41.47
62333;BME280;48624;49.812;8.562;2023-02-28T10:53:07;101686.66;;;5.66;41.28
62333;BME280;48624;49.812;8.562;2023-02-28T10:55:33;101667.75;;;5.85;41.56
62333;BME280;48624;49.812;8.562;2023-02-28T10:57:58;101682.47;;;5.59;40.65
62333;BME280;48624;49.812;8.562;2023-02-28T11:00:25;101679.75;;;5.93;40.45
62333;BME280;48624;49.812;8.562;2023-02-28T11:02:56;101686.03;;;5.23;41.25
62333;BME280;48624;49.812;8.562;2023-02-28T11:05:27;101664.53;;;5.41;40.53
62333;BME280;48624;49.812;8.562;2023-02-28T11:08:02;101680.97;;;5.15;40.63
62333;BME280;48624;49.812;8.562;2023-02-28T11:10:31;101668.94;;;5.73;41.23
62333;BME280;48624;49.812;8.562;2023-02-28T11:13:00;101671.28;;;5.83;40.89
62333;BME280;48624;49.812;8.562;2023-02-28T11:15:30;101676.97;;;6.31;39.99
62333;BME280;48624;49.812;8.562;2023-02-28T11:18:02;101667.28;;;5.68;39.92
62333;BME280;48624;49.812;8.562;2023-02-28T11:20:32;101680.75;;;6.21;40.46
62333;BME280;48624;49.812;8.562;2023-02-28T11:23:01;101670.53;;;6.40;39.07
62333;BME280;48624;49.812;8.562;2023-02-28T11:27:57;101680.44;;;6.00;39.12
62333;BME280;48624;49.812;8.562;2023-02-28T11:30:25;101666.56;;;6.27;39.75
62333;BME280;48624;49.812;8.562;2023-02-28T11:32:51;101656.06;;;6.53;39.07
62333;BME280;48624;49.812;8.562;2023-02-28T11:37:55;101655.56;;;6.42;39.16
62333;BME280;48624;49.812;8.562;2023-02-28T11:40:31;101663.59;;;6.66;38.77
62333;BME280;48624;49.812;8.562;2023-02-28T11:43:12;101660.94;;;7.71;37.21
62333;BME280;48624;49.812;8.562;2023-02-28T11:48:44;101664.97;;;6.78;38.58
62333;BME280;48624;49.812;8.562;2023-02-28T11:51:21;101654.41;;;7.32;37.78
62333;BME280;48624;49.812;8.562;2023-02-28T11:56:37;101654.19;;;7.13;37.98
62333;BME280;48624;49.812;8.562;2023-02-28T12:02:33;101650.75;;;7.36;38.19
62333;BME280;48624;49.812;8.562;2023-02-28T12:05:16;101651.44;;;6.33;39.14
62333;BME280;48624;49.812;8.562;2023-02-28T12:07:55;101652.66;;;5.91;40.23
62333;BME280;48624;49.812;8.562;2023-02-28T12:10:29;101655.00;;;5.37;40.45
62333;BME280;48624;49.812;8.562;2023-02-28T12:13:18;101655.19;;;5.94;40.13
62333;BME280;48624;49.812;8.562;2023-02-28T12:27:02;101644.72;;;8.05;38.04
62333;BME280;48624;49.812;8.562;2023-02-28T12:29:43;101649.81;;;7.62;38.04
62333;BME280;48624;49.812;8.562;2023-02-28T12:32:36;101651.22;;;7.47;38.10
62333;BME280;48624;49.812;8.562;2023-02-28T12:35:13;101633.06;;;7.63;37.25
62333;BME280;48624;49.812;8.562;2023-02-28T12:37:46;101636.25;;;7.48;37.95
62333;BME280;48624;49.812;8.562;2023-02-28T12:40:20;101642.75;;;6.87;37.64
62333;BME280;48624;49.812;8.562;2023-02-28T12:42:50;101641.50;;;7.24;37.84
62333;BME280;48624;49.812;8.562;2023-02-28T12:45:24;101631.84;;;7.72;37.75
62333;BME280;48624;49.812;8.562;2023-02-28T12:47:58;101632.44;;;7.57;37.33
62333;BME280;48624;49.812;8.562;2023-02-28T12:50:26;101635.31;;;8.67;36.01
62333;BME280;48624;49.812;8.562;2023-02-28T12:55:46;101635.19;;;7.03;37.87
62333;BME280;48624;49.812;8.562;2023-02-28T12:58:27;101634.94;;;8.31;36.49
62333;BME280;48624;49.812;8.562;2023-02-28T13:01:10;101636.53;;;8.36;36.50
62333;BME280;48624;49.812;8.562;2023-02-28T13:09:16;101633.53;;;7.75;37.71
62333;BME280;48624;49.812;8.562;2023-02-28T13:11:50;101633.94;;;7.88;37.33
62333;BME280;48624;49.812;8.562;2023-02-28T13:19:36;101636.16;;;7.51;36.97
62333;BME280;48624;49.812;8.562;2023-02-28T13:22:04;101629.56;;;6.87;37.30
62333;BME280;48624;49.812;8.562;2023-02-28T13:24:52;101634.38;;;7.52;37.68
62333;BME280;48624;49.812;8.562;2023-02-28T13:27:40;101627.97;;;8.07;36.13
62333;BME280;48624;49.812;8.562;2023-02-28T13:38:33;101633.38;;;8.48;36.66
62333;BME280;48624;49.812;8.562;2023-02-28T13:44:18;101629.25;;;8.65;35.78
62333;BME280;48624;49.812;8.562;2023-02-28T13:51:48;101612.94;;;9.38;35.23
62333;BME280;48624;49.812;8.562;2023-02-28T13:54:24;101617.81;;;9.07;34.72
62333;BME280;48624;49.812;8.562;2023-02-28T14:05:06;101608.63;;;8.95;34.20
62333;BME280;48624;49.812;8.562;2023-02-28T14:07:44;101600.59;;;9.38;33.98
62333;BME280;48624;49.812;8.562;2023-02-28T14:10:21;101597.75;;;9.62;34.31
62333;BME280;48624;49.812;8.562;2023-02-28T14:18:00;101608.81;;;9.11;35.04
62333;BME280;48624;49.812;8.562;2023-02-28T14:20:30;101597.50;;;10.07;34.17
62333;BME280;48624;49.812;8.562;2023-02-28T14:25:51;101600.25;;;8.41;34.26
62333;BME280;48624;49.812;8.562;2023-02-28T14:31:13;101604.78;;;9.02;34.26
62333;BME280;48624;49.812;8.562;2023-02-28T14:33:57;101602.78;;;9.08;34.13
62333;BME280;48624;49.812;8.562;2023-02-28T14:36:34;101605.69;;;9.43;33.99
62333;BME280;48624;49.812;8.562;2023-02-28T14:39:27;101602.28;;;9.20;33.99
62333;BME280;48624;49.812;8.562;2023-02-28T14:41:56;101603.34;;;9.75;34.11
62333;BME280;48624;49.812;8.562;2023-02-28T14:44:24;101594.41;;;10.16;33.04
62333;BME280;48624;49.812;8.562;2023-02-28T14:46:53;101593.50;;;9.98;32.92
62333;BME280;48624;49.812;8.562;2023-02-28T14:49:31;101600.25;;;10.23;32.29
62333;BME280;48624;49.812;8.562;2023-02-28T14:52:24;101592.72;;;9.96;32.93
62333;BME280;48624;49.812;8.562;2023-02-28T14:54:57;101587.72;;;9.90;32.24
62333;BME280;48624;49.812;8.562;2023-02-28T14:57:35;101589.69;;;9.65;33.47
62333;BME280;48624;49.812;8.562;2023-02-28T15:02:41;101582.69;;;9.64;32.91